Time;durP1;ratioP1;P1;durP2;ratioP2;P2;SDS_P1;SDS_P2;PMS_P1;PMS_P2;Temp;Humidity;BMP_temperature;BMP_pressure;BME280_temperature;BME280_humidity;BME280_pressure;Samples;Min_cycle;Max_cycle;Signal;HPM_P1;HPM_P2
2021/10/30 00:01:35;;;;;;;47.70;23.58;;;;;;;9.93;100.00;101196.13;6388901;27;20487;-73
2021/10/30 00:04:40;;;;;;;49.22;23.05;;;;;;;9.92;100.00;101197.16;6389761;27;20189;-74
2021/10/30 00:07:44;;;;;;;45.30;22.33;;;;;;;10.00;100.00;101200.56;6390194;27;20226;-73
2021/10/30 00:10:48;;;;;;;49.92;22.55;;;;;;;9.94;100.00;101187.72;6390185;27;20250;-74
2021/10/30 00:13:53;;;;;;;48.45;22.00;;;;;;;10.13;100.00;101182.59;6388088;27;20213;-73
2021/10/30 00:16:59;;;;;;;45.58;22.40;;;;;;;10.23;100.00;101177.56;6388503;27;20511;-73
2021/10/30 00:20:04;;;;;;;44.38;22.20;;;;;;;10.32;100.00;101192.72;6388793;27;20460;-73
2021/10/30 00:23:10;;;;;;;48.40;22.02;;;;;;;10.31;100.00;101188.28;6389760;27;20181;-73
2021/10/30 00:26:14;;;;;;;49.88;23.30;;;;;;;10.30;100.00;101189.31;6389171;27;20189;-73
2021/10/30 00:29:19;;;;;;;43.00;21.95;;;;;;;10.36;100.00;101194.81;6382030;27;20226;-73
2021/10/30 00:32:24;;;;;;;46.42;22.08;;;;;;;10.39;100.00;101182.63;6363890;28;20186;-74
2021/10/30 00:35:29;;;;;;;47.97;23.30;;;;;;;10.47;100.00;101190.63;6363807;28;20269;-74
2021/10/30 00:38:33;;;;;;;41.35;20.38;;;;;;;10.47;100.00;101179.72;6363315;28;20245;-74
2021/10/30 00:41:37;;;;;;;37.65;19.02;;;;;;;10.28;100.00;101192.28;6363704;28;20217;-73
2021/10/30 00:44:42;;;;;;;33.78;17.23;;;;;;;10.16;100.00;101193.94;6363644;28;20214;-73
2021/10/30 00:47:47;;;;;;;33.20;18.05;;;;;;;10.19;100.00;101187.22;6363182;28;20489;-74
2021/10/30 00:50:51;;;;;;;34.97;17.77;;;;;;;10.03;100.00;101194.69;6362622;28;20192;-74
2021/10/30 00:53:57;;;;;;;35.30;18.88;;;;;;;10.01;100.00;101202.22;6378873;27;20204;-74
2021/10/30 00:57:03;;;;;;;40.78;18.20;;;;;;;10.14;100.00;101195.19;6363101;28;20212;-74
2021/10/30 01:00:09;;;;;;;34.45;18.98;;;;;;;9.99;100.00;101187.97;6363179;28;20189;-74
2021/10/30 01:03:17;;;;;;;33.17;17.55;;;;;;;9.99;100.00;101184.38;6361906;28;20182;-74
2021/10/30 01:06:21;;;;;;;34.22;18.48;;;;;;;10.04;100.00;101185.47;6362554;28;20186;-74
2021/10/30 01:09:26;;;;;;;36.60;19.05;;;;;;;10.11;100.00;101177.31;6362944;28;20220;-74
2021/10/30 01:12:30;;;;;;;33.55;17.58;;;;;;;10.15;100.00;101169.56;6361945;28;20249;-74
2021/10/30 01:15:34;;;;;;;40.05;18.77;;;;;;;10.19;100.00;101155.34;6362835;28;20211;-74
2021/10/30 01:18:41;;;;;;;34.75;18.23;;;;;;;10.15;100.00;101158.66;6361677;28;20182;-75
2021/10/30 01:21:47;;;;;;;33.03;16.80;;;;;;;10.21;100.00;101152.41;6362545;28;20182;-74
2021/10/30 01:24:52;;;;;;;31.55;17.17;;;;;;;10.08;100.00;101164.09;6361333;28;20457;-74
2021/10/30 01:27:59;;;;;;;28.20;15.73;;;;;;;10.20;100.00;101146.09;6362541;28;20186;-74
2021/10/30 01:31:04;;;;;;;30.73;15.88;;;;;;;10.17;100.00;101151.16;6361993;28;20253;-74
2021/10/30 01:34:10;;;;;;;27.73;15.77;;;;;;;10.12;100.00;101148.16;6361547;28;20217;-75
2021/10/30 01:37:16;;;;;;;28.77;15.15;;;;;;;10.12;100.00;101142.72;6361520;28;20267;-74
2021/10/30 01:40:20;;;;;;;32.35;16.08;;;;;;;10.16;100.00;101146.72;6362364;28;20245;-73
2021/10/30 01:43:24;;;;;;;32.22;15.95;;;;;;;10.05;100.00;101140.81;6362756;28;20306;-73
2021/10/30 01:46:28;;;;;;;26.67;15.50;;;;;;;10.04;100.00;101152.75;6362668;28;20186;-73
2021/10/30 01:49:33;;;;;;;28.92;15.65;;;;;;;9.91;100.00;101147.25;6362646;28;20227;-73
2021/10/30 01:52:38;;;;;;;28.25;15.02;;;;;;;9.88;100.00;101147.69;6362283;28;20182;-74
2021/10/30 01:55:42;;;;;;;28.00;15.15;;;;;;;9.76;100.00;101138.41;6361553;28;20259;-73
2021/10/30 01:58:47;;;;;;;25.00;14.75;;;;;;;9.56;100.00;101142.94;6361203;28;20205;-73
2021/10/30 02:01:51;;;;;;;28.23;15.30;;;;;;;9.63;100.00;101140.25;6362538;28;20190;-73
2021/10/30 02:04:55;;;;;;;26.60;14.75;;;;;;;9.70;100.00;101144.69;6361957;28;20245;-73
2021/10/30 02:08:01;;;;;;;26.02;14.27;;;;;;;9.79;100.00;101127.09;6362412;28;20253;-73
2021/10/30 02:11:05;;;;;;;30.38;14.32;;;;;;;9.84;100.00;101129.19;6362046;28;20186;-74
2021/10/30 02:14:10;;;;;;;35.70;17.27;;;;;;;9.90;100.00;101123.78;6361939;28;20182;-74
2021/10/30 02:17:14;;;;;;;29.55;14.55;;;;;;;9.58;100.00;101132.66;6362039;28;20210;-73
2021/10/30 02:20:19;;;;;;;26.65;14.07;;;;;;;9.70;100.00;101136.50;6362370;28;20183;-74
2021/10/30 02:23:25;;;;;;;25.08;14.18;;;;;;;9.88;100.00;101136.78;6362014;28;20198;-74
2021/10/30 02:26:30;;;;;;;22.50;13.30;;;;;;;9.76;100.00;101132.09;6361315;28;20193;-73
2021/10/30 02:29:34;;;;;;;28.77;14.85;;;;;;;9.65;100.00;101147.19;6360548;28;20384;-73
2021/10/30 02:32:38;;;;;;;26.85;14.50;;;;;;;9.57;100.00;101139.19;6362033;28;20258;-73
2021/10/30 02:35:42;;;;;;;22.10;13.38;;;;;;;9.59;100.00;101141.69;6362282;28;20250;-73
2021/10/30 02:38:47;;;;;;;34.22;17.27;;;;;;;9.72;100.00;101134.41;6391363;27;20220;-73
2021/10/30 02:41:52;;;;;;;28.63;15.52;;;;;;;9.64;100.00;101134.59;6391909;27;20192;-73
2021/10/30 02:45:00;;;;;;;25.77;14.27;;;;;;;9.55;100.00;101141.28;6390866;27;20484;-73
2021/10/30 02:48:06;;;;;;;26.70;14.90;;;;;;;9.58;100.00;101149.00;6392189;27;20186;-73
2021/10/30 02:51:12;;;;;;;27.58;15.10;;;;;;;9.35;100.00;101154.78;6392094;27;20219;-74
2021/10/30 02:54:18;;;;;;;30.50;14.73;;;;;;;9.23;100.00;101159.13;6390262;27;20197;-73
2021/10/30 02:57:23;;;;;;;28.45;15.18;;;;;;;9.51;100.00;101156.31;6390480;27;20549;-73
2021/10/30 03:00:27;;;;;;;27.90;15.20;;;;;;;9.56;100.00;101153.84;6391818;27;20220;-73
2021/10/30 03:03:31;;;;;;;27.98;14.45;;;;;;;9.55;100.00;101145.88;6390347;27;20244;-73
2021/10/30 03:06:35;;;;;;;30.60;15.48;;;;;;;9.57;100.00;101141.91;6390339;27;20185;-73
2021/10/30 03:09:47;;;;;;;27.48;14.98;;;;;;;9.72;100.00;101131.69;6391223;27;20190;-73
2021/10/30 03:12:51;;;;;;;27.58;14.98;;;;;;;9.35;100.00;101141.16;6391260;27;20260;-73
2021/10/30 03:15:56;;;;;;;33.55;16.13;;;;;;;9.36;100.00;101136.56;6391441;27;20182;-73
2021/10/30 03:19:18;;;;;;;27.65;14.45;;;;;;;9.32;100.00;101136.13;6391310;27;20247;-73
2021/10/30 03:22:23;;;;;;;27.15;14.93;;;;;;;9.45;100.00;101146.22;6391363;27;20188;-73
2021/10/30 03:25:28;;;;;;;30.63;15.30;;;;;;;9.41;100.00;101150.41;6389959;27;20204;-73
2021/10/30 03:28:33;;;;;;;32.33;15.45;;;;;;;9.34;100.00;101139.50;6390694;27;20192;-73
2021/10/30 03:31:37;;;;;;;25.25;14.40;;;;;;;9.39;100.00;101134.28;6390029;27;20261;-73
2021/10/30 03:34:41;;;;;;;31.50;15.75;;;;;;;9.39;100.00;101144.34;6390719;27;20248;-73
2021/10/30 03:37:46;;;;;;;28.58;14.82;;;;;;;9.37;100.00;101138.25;6390798;27;20237;-73
2021/10/30 03:40:52;;;;;;;31.83;15.55;;;;;;;9.43;100.00;101131.97;6390946;27;20249;-73
2021/10/30 03:43:56;;;;;;;35.50;16.17;;;;;;;9.41;100.00;101131.34;6389853;27;20186;-73
2021/10/30 03:47:00;;;;;;;31.85;15.82;;;;;;;9.38;100.00;101131.75;6390723;27;20207;-74
2021/10/30 03:50:05;;;;;;;31.13;15.70;;;;;;;9.30;100.00;101129.19;6390042;27;20364;-73
2021/10/30 03:53:10;;;;;;;24.55;13.95;;;;;;;9.26;100.00;101136.09;6390316;27;20219;-73
2021/10/30 03:56:17;;;;;;;30.90;15.70;;;;;;;9.40;100.00;101137.81;6389108;27;20239;-73
2021/10/30 03:59:22;;;;;;;30.48;15.55;;;;;;;9.23;100.00;101125.59;6390005;27;20216;-74
2021/10/30 04:02:26;;;;;;;27.65;15.05;;;;;;;9.33;100.00;101128.78;6390152;27;20212;-73
2021/10/30 04:05:30;;;;;;;31.15;15.80;;;;;;;9.20;100.00;101121.41;6389327;27;20261;-73
2021/10/30 04:08:35;;;;;;;30.33;14.88;;;;;;;9.25;100.00;101118.06;6388734;27;20351;-73
2021/10/30 04:11:40;;;;;;;36.65;16.05;;;;;;;9.08;100.00;101128.47;6388717;27;20182;-73
2021/10/30 04:14:44;;;;;;;30.33;14.90;;;;;;;9.12;100.00;101134.31;6389675;27;20188;-73
2021/10/30 04:17:48;;;;;;;33.47;14.57;;;;;;;9.14;100.00;101132.25;6389749;27;20236;-73
2021/10/30 04:20:53;;;;;;;27.95;14.48;;;;;;;9.06;100.00;101119.66;6389573;27;20182;-74
2021/10/30 04:23:58;;;;;;;36.78;16.13;;;;;;;9.21;100.00;101133.13;6389664;27;20375;-74
2021/10/30 04:27:04;;;;;;;33.78;16.13;;;;;;;9.21;100.00;101133.13;6389421;27;20244;-74
2021/10/30 04:30:09;;;;;;;30.00;15.65;;;;;;;9.14;100.00;101132.25;6388924;27;20263;-74
2021/10/30 04:33:18;;;;;;;33.10;15.40;;;;;;;9.07;100.00;101142.25;6389331;27;20188;-74
2021/10/30 04:36:25;;;;;;;32.25;15.57;;;;;;;9.08;100.00;101135.78;6388453;27;20182;-74
2021/10/30 04:39:29;;;;;;;33.47;16.20;;;;;;;9.19;100.00;101135.22;6387901;27;20604;-74
2021/10/30 04:42:35;;;;;;;33.63;15.57;;;;;;;9.17;100.00;101129.13;6387980;27;20213;-74
2021/10/30 04:45:40;;;;;;;33.75;15.57;;;;;;;9.33;100.00;101131.50;6388972;27;20234;-74
2021/10/30 04:48:45;;;;;;;32.58;16.08;;;;;;;9.30;100.00;101121.03;6389245;27;20185;-74
2021/10/30 04:51:49;;;;;;;35.53;15.40;;;;;;;9.18;100.00;101112.59;6389339;27;20181;-73
2021/10/30 04:54:55;;;;;;;34.30;16.20;;;;;;;9.35;100.00;101107.63;6387949;27;20434;-74
2021/10/30 04:58:01;;;;;;;35.58;16.85;;;;;;;9.48;100.00;101102.25;6389047;27;20209;-74
2021/10/30 05:01:05;;;;;;;39.28;16.50;;;;;;;9.54;100.00;101117.78;6388369;27;20181;-74
2021/10/30 05:04:10;;;;;;;34.45;16.20;;;;;;;9.50;100.00;101100.16;6387470;27;20473;-74
2021/10/30 05:07:15;;;;;;;37.35;16.48;;;;;;;9.42;100.00;101108.53;6387899;27;20225;-74
2021/10/30 05:10:20;;;;;;;40.28;17.33;;;;;;;9.32;100.00;101102.63;6388745;27;20265;-74
2021/10/30 05:13:26;;;;;;;40.70;17.33;;;;;;;9.23;100.00;101098.38;6388392;27;20238;-74
2021/10/30 05:16:30;;;;;;;39.03;17.77;;;;;;;9.39;100.00;101095.31;6388349;27;20211;-74
2021/10/30 05:19:34;;;;;;;37.38;16.98;;;;;;;9.25;100.00;101090.84;6388338;27;20216;-74
2021/10/30 05:22:38;;;;;;;37.25;17.20;;;;;;;9.36;100.00;101098.44;6388684;27;20241;-74
2021/10/30 05:25:42;;;;;;;36.75;17.13;;;;;;;9.19;100.00;101086.22;6387674;27;20185;-74
2021/10/30 05:28:48;;;;;;;41.63;18.10;;;;;;;9.33;100.00;101082.50;6380468;27;20198;-74
2021/10/30 05:31:52;;;;;;;38.03;17.73;;;;;;;9.20;100.00;101077.00;6333647;28;20183;-74
2021/10/30 05:34:56;;;;;;;35.28;16.83;;;;;;;9.26;100.00;101077.03;6336304;28;20443;-74
2021/10/30 05:38:33;;;;;;;38.83;18.00;;;;;;;9.16;100.00;101071.13;6324626;28;20335;-74
2021/10/30 05:41:37;;;;;;;39.38;17.33;;;;;;;9.29;100.00;101071.19;6337296;28;20183;-74
2021/10/30 05:44:42;;;;;;;35.60;17.70;;;;;;;9.38;100.00;101059.06;6336147;28;20520;-73
2021/10/30 05:47:47;;;;;;;35.65;17.40;;;;;;;9.46;100.00;101077.13;6337253;28;20183;-73
2021/10/30 05:50:51;;;;;;;41.25;18.60;;;;;;;9.26;100.00;101070.75;6336991;28;20276;-73
2021/10/30 05:53:55;;;;;;;40.70;17.63;;;;;;;9.32;100.00;101075.41;6336045;28;20427;-73
2021/10/30 05:57:00;;;;;;;40.28;18.42;;;;;;;9.09;100.00;101085.75;6337221;28;20214;-73
2021/10/30 06:00:07;;;;;;;46.85;19.55;;;;;;;8.97;100.00;101080.03;6336874;28;20210;-73
2021/10/30 06:03:21;;;;;;;48.22;19.70;;;;;;;9.00;100.00;101081.50;6336136;28;20259;-73
2021/10/30 06:06:25;;;;;;;44.40;18.83;;;;;;;9.10;100.00;101076.53;6335689;28;20530;-73
2021/10/30 06:09:30;;;;;;;44.17;19.80;;;;;;;9.15;100.00;101074.88;6335824;28;20246;-73
2021/10/30 06:12:39;;;;;;;49.03;20.38;;;;;;;9.07;100.00;101071.47;6339034;28;20190;-74
2021/10/30 06:15:45;;;;;;;43.38;19.48;;;;;;;9.05;100.00;101079.00;6341791;28;20215;-73
2021/10/30 06:18:50;;;;;;;47.08;20.38;;;;;;;9.09;100.00;101064.78;6341412;28;20248;-73
2021/10/30 06:21:54;;;;;;;43.35;18.50;;;;;;;9.06;100.00;101080.69;6340641;28;20271;-74
2021/10/30 06:24:58;;;;;;;43.40;18.58;;;;;;;9.12;100.00;101090.75;6340335;28;20643;-73
2021/10/30 06:28:04;;;;;;;42.25;18.77;;;;;;;9.26;100.00;101098.81;6341526;28;20225;-73
2021/10/30 06:31:10;;;;;;;45.47;18.45;;;;;;;9.23;100.00;101098.38;6359612;28;20293;-73
2021/10/30 06:34:15;;;;;;;41.63;18.10;;;;;;;9.35;100.00;101100.31;6392147;27;20197;-73
2021/10/30 06:37:19;;;;;;;39.50;17.90;;;;;;;9.39;100.00;101103.47;6391294;27;20224;-73
2021/10/30 06:40:23;;;;;;;43.60;18.23;;;;;;;9.44;100.00;101101.84;6390835;27;20575;-73
2021/10/30 06:43:27;;;;;;;40.88;18.45;;;;;;;9.45;100.00;101102.66;6392280;27;20244;-74
2021/10/30 06:46:33;;;;;;;40.15;17.67;;;;;;;9.39;100.00;101103.47;6392057;27;20182;-74
2021/10/30 06:49:38;;;;;;;38.00;16.80;;;;;;;9.40;100.00;101102.41;6391143;27;20299;-74
2021/10/30 06:52:42;;;;;;;38.55;16.80;;;;;;;9.41;100.00;101123.19;6391704;27;20181;-74
2021/10/30 06:55:48;;;;;;;40.83;17.35;;;;;;;9.10;100.00;101125.53;6390941;27;20182;-75
2021/10/30 06:58:53;;;;;;;38.42;17.58;;;;;;;9.25;100.00;101123.50;6390448;27;20205;-73
2021/10/30 07:01:58;;;;;;;36.80;17.17;;;;;;;9.21;100.00;101123.09;6390324;27;20273;-74
2021/10/30 07:05:04;;;;;;;47.95;19.00;;;;;;;9.26;100.00;101119.75;6391753;27;20227;-74
2021/10/30 07:08:11;;;;;;;43.13;19.23;;;;;;;9.36;100.00;101125.66;6390356;27;20190;-74
2021/10/30 07:11:16;;;;;;;41.40;19.52;;;;;;;9.31;100.00;101128.16;6391372;27;20192;-74
2021/10/30 07:14:21;;;;;;;48.55;20.00;;;;;;;9.30;100.00;101101.97;6390645;27;20181;-74
2021/10/30 07:17:27;;;;;;;45.30;20.23;;;;;;;9.38;100.00;101096.34;6391344;27;20189;-73
2021/10/30 07:20:31;;;;;;;49.63;21.13;;;;;;;9.58;100.00;101097.25;6389789;27;20535;-74
2021/10/30 07:23:37;;;;;;;50.05;21.40;;;;;;;9.74;100.00;101086.00;6390781;27;20222;-72
2021/10/30 07:26:41;;;;;;;50.67;22.70;;;;;;;9.70;100.00;101084.75;6389696;27;20274;-73
2021/10/30 07:29:48;;;;;;;55.20;22.05;;;;;;;9.76;100.00;101083.91;6391167;27;20260;-73
2021/10/30 07:32:54;;;;;;;59.35;23.30;;;;;;;9.78;100.00;101081.84;6390412;27;20254;-74
2021/10/30 07:35:58;;;;;;;54.22;24.80;;;;;;;9.80;100.00;101090.63;6390368;27;20182;-73
2021/10/30 07:39:02;;;;;;;47.88;23.88;;;;;;;9.91;100.00;101094.66;6390688;27;20188;-73
2021/10/30 07:42:08;;;;;;;52.25;24.70;;;;;;;9.90;100.00;101092.97;6389785;27;20194;-73
2021/10/30 07:45:12;;;;;;;48.85;23.88;;;;;;;9.94;100.00;101096.94;6389457;27;20190;-74
2021/10/30 07:48:22;;;;;;;53.25;25.40;;;;;;;10.00;100.00;101096.13;6389913;27;20197;-74
2021/10/30 07:51:26;;;;;;;50.30;23.77;;;;;;;10.11;100.00;101091.94;6388991;27;20252;-74
2021/10/30 07:54:30;;;;;;;52.05;26.38;;;;;;;10.21;100.00;101086.97;6389145;27;20578;-74
2021/10/30 07:57:34;;;;;;;54.70;25.58;;;;;;;10.25;100.00;101078.16;6390024;27;20242;-74
2021/10/30 08:00:38;;;;;;;47.17;24.38;;;;;;;10.25;100.00;101071.84;6389879;27;20281;-74
2021/10/30 08:03:44;;;;;;;49.75;24.75;;;;;;;10.24;100.00;101078.38;6389985;27;20256;-73
2021/10/30 08:06:48;;;;;;;49.78;25.50;;;;;;;10.39;100.00;101084.44;6388854;27;20496;-74
2021/10/30 08:09:52;;;;;;;46.20;24.30;;;;;;;10.29;100.00;101086.75;6390034;27;20254;-72
2021/10/30 08:12:58;;;;;;;53.65;26.48;;;;;;;10.26;100.00;101079.00;6389467;27;20245;-74
2021/10/30 08:16:02;;;;;;;46.10;24.95;;;;;;;10.35;100.00;101072.28;6389378;27;20182;-73
2021/10/30 08:19:08;;;;;;;47.58;25.35;;;;;;;10.31;100.00;101076.47;6389645;27;20252;-73
2021/10/30 08:22:13;;;;;;;44.80;23.75;;;;;;;10.41;100.00;101076.88;6388226;27;20298;-73
2021/10/30 08:25:18;;;;;;;45.58;25.27;;;;;;;10.38;100.00;101071.84;6389312;27;20192;-75
2021/10/30 08:28:22;;;;;;;47.25;24.63;;;;;;;10.33;100.00;101075.22;6387518;27;20189;-73
2021/10/30 08:31:27;;;;;;;47.22;24.52;;;;;;;10.34;100.00;101081.50;6356085;28;20248;-73
2021/10/30 08:34:32;;;;;;;42.65;24.17;;;;;;;10.36;100.00;101063.91;6361879;28;20425;-73
2021/10/30 08:37:38;;;;;;;51.67;26.05;;;;;;;10.31;100.00;101065.56;6362392;28;20496;-73
2021/10/30 08:40:43;;;;;;;47.45;24.17;;;;;;;10.38;100.00;101077.31;6363580;28;20274;-74
2021/10/30 08:43:49;;;;;;;46.03;25.95;;;;;;;10.43;100.00;101074.78;6362356;28;20465;-73
2021/10/30 08:46:54;;;;;;;42.05;25.13;;;;;;;10.60;100.00;101087.81;6363593;28;20258;-74
2021/10/30 08:50:00;;;;;;;46.38;25.23;;;;;;;10.53;100.00;101065.13;6363575;28;20186;-73
2021/10/30 08:53:05;;;;;;;49.05;24.92;;;;;;;10.58;100.00;101064.50;6363153;28;20189;-73
2021/10/30 08:56:10;;;;;;;44.92;25.20;;;;;;;10.59;100.00;101060.72;6363347;28;20182;-75
2021/10/30 08:59:14;;;;;;;49.47;24.27;;;;;;;10.67;100.00;101055.06;6363023;28;20217;-73
2021/10/30 09:02:30;;;;;;;43.90;24.67;;;;;;;10.78;99.71;101057.13;6362833;28;20213;-73
2021/10/30 09:05:36;;;;;;;44.17;24.60;;;;;;;10.64;100.00;101063.66;6363255;28;20242;-74
2021/10/30 09:08:40;;;;;;;40.50;23.20;;;;;;;10.70;100.00;101054.63;6361875;28;20501;-74
2021/10/30 09:11:54;;;;;;;44.08;24.10;;;;;;;10.70;100.00;101062.81;6362760;28;20296;-74
2021/10/30 09:14:59;;;;;;;42.33;24.40;;;;;;;10.77;99.50;101071.81;6362718;28;20181;-74
2021/10/30 09:18:06;;;;;;;41.70;23.92;;;;;;;10.83;99.76;101081.91;6362969;28;20265;-74
2021/10/30 09:21:15;;;;;;;44.33;25.05;;;;;;;10.80;99.26;101076.03;6362948;28;20206;-74
2021/10/30 09:24:21;;;;;;;50.95;25.77;;;;;;;10.71;100.00;101078.13;6362295;28;20182;-74
2021/10/30 09:27:49;;;;;;;50.25;26.83;;;;;;;10.73;99.82;101086.97;6362615;28;20181;-74
2021/10/30 09:30:59;;;;;;;47.50;25.38;;;;;;;10.85;99.39;101087.97;6363058;28;20245;-74
2021/10/30 09:34:07;;;;;;;45.78;24.88;;;;;;;10.92;99.31;101094.25;6362789;28;20183;-74
2021/10/30 09:37:19;;;;;;;46.30;26.15;;;;;;;10.92;98.36;101086.06;6361539;28;20542;-73
2021/10/30 09:40:26;;;;;;;52.50;26.52;;;;;;;11.02;97.69;101081.00;6344557;28;20197;-73
2021/10/30 09:43:31;;;;;;;49.40;25.02;;;;;;;10.99;96.83;101066.97;6361323;28;20188;-73
2021/10/30 09:46:37;;;;;;;50.10;25.58;;;;;;;11.04;96.48;101062.50;6364514;28;20189;-73
2021/10/30 09:49:41;;;;;;;49.03;26.17;;;;;;;10.94;96.91;101067.56;6367314;28;20181;-73
2021/10/30 09:56:12;;;;;;;47.22;26.38;;;;;;;11.05;96.74;101072.38;6367712;28;20182;-75
2021/10/30 09:59:17;;;;;;;45.42;25.30;;;;;;;11.12;96.58;101065.00;6367257;28;20182;-74
2021/10/30 10:02:23;;;;;;;44.88;24.92;;;;;;;11.26;95.94;101060.34;6366154;28;20368;-72
2021/10/30 10:05:28;;;;;;;45.75;25.88;;;;;;;11.24;95.61;101057.84;6366198;28;20182;-72
2021/10/30 10:08:37;;;;;;;51.03;26.98;;;;;;;11.09;96.40;101051.78;6367046;28;20281;-73
2021/10/30 10:11:43;;;;;;;43.15;24.83;;;;;;;11.33;94.94;101044.75;6367485;28;20223;-74
2021/10/30 10:14:47;;;;;;;43.83;26.13;;;;;;;11.09;95.91;101054.50;6367204;28;20258;-73
2021/10/30 10:17:51;;;;;;;46.22;26.08;;;;;;;11.12;95.76;101054.09;6366799;28;20182;-72
2021/10/30 10:20:56;;;;;;;51.03;26.25;;;;;;;11.18;95.48;101036.84;6365909;28;20237;-75
2021/10/30 10:24:03;;;;;;;49.95;26.20;;;;;;;11.24;94.83;101040.63;6365428;28;20261;-72
2021/10/30 10:27:09;;;;;;;47.33;26.88;;;;;;;11.25;94.83;101051.31;6366527;28;20245;-72
2021/10/30 10:30:13;;;;;;;50.03;27.35;;;;;;;11.23;95.14;101061.63;6366332;28;20293;-72
2021/10/30 10:33:17;;;;;;;44.22;24.60;;;;;;;11.30;94.08;101039.72;6365491;28;20253;-73
2021/10/30 10:36:26;;;;;;;48.13;26.30;;;;;;;11.40;93.49;101047.47;6391736;27;20252;-73
2021/10/30 10:39:33;;;;;;;47.95;26.50;;;;;;;11.40;92.99;101029.16;6391233;27;20181;-73
2021/10/30 10:42:41;;;;;;;46.58;25.77;;;;;;;11.53;92.16;101039.22;6391175;27;20217;-73
2021/10/30 10:45:49;;;;;;;48.85;25.80;;;;;;;11.60;91.28;101034.56;6390976;27;20410;-73
2021/10/30 10:48:54;;;;;;;48.78;26.42;;;;;;;11.49;91.57;101032.50;6391842;27;20182;-74
2021/10/30 10:52:02;;;;;;;48.00;25.42;;;;;;;11.50;91.41;101028.72;6390590;27;20382;-73
2021/10/30 10:55:09;;;;;;;48.10;24.95;;;;;;;11.40;92.17;101045.56;6390820;27;20189;-74
2021/10/30 10:58:16;;;;;;;51.88;25.98;;;;;;;11.53;91.60;101050.16;6389881;27;20373;-73
2021/10/30 11:01:20;;;;;;;52.63;27.05;;;;;;;11.45;92.13;101058.59;6391665;27;20205;-73
2021/10/30 11:04:24;;;;;;;53.78;27.17;;;;;;;11.51;91.79;101052.25;6390202;27;20526;-73
2021/10/30 11:07:29;;;;;;;44.42;25.20;;;;;;;11.57;91.06;101043.19;6390152;27;20408;-73
2021/10/30 11:10:38;;;;;;;42.83;26.25;;;;;;;11.71;89.04;101047.56;6391455;27;20181;-73
2021/10/30 11:13:47;;;;;;;49.40;25.38;;;;;;;11.67;89.31;101046.28;6391190;27;20272;-73
2021/10/30 11:16:53;;;;;;;46.25;25.27;;;;;;;11.67;89.24;101040.81;6391090;27;20193;-73
2021/10/30 11:19:57;;;;;;;44.40;25.05;;;;;;;11.69;88.00;101049.66;6391090;27;20212;-73
2021/10/30 11:23:04;;;;;;;41.13;24.73;;;;;;;11.72;88.60;101043.75;6389633;27;20469;-73
2021/10/30 11:26:16;;;;;;;47.75;25.17;;;;;;;11.74;88.20;101036.16;6390720;27;20241;-73
2021/10/30 11:29:20;;;;;;;43.05;24.63;;;;;;;11.85;86.44;101038.22;6370966;27;20263;-73
2021/10/30 11:32:24;;;;;;;42.65;23.20;;;;;;;11.79;87.18;101044.53;6338569;28;20186;-73
2021/10/30 11:35:28;;;;;;;42.45;24.70;;;;;;;11.73;86.79;101045.44;6338855;28;20492;-74
2021/10/30 11:38:35;;;;;;;46.00;24.55;;;;;;;11.81;85.93;101042.44;6338414;28;20493;-73
2021/10/30 11:41:42;;;;;;;43.03;24.27;;;;;;;11.79;85.83;101050.00;6339292;28;20214;-73
2021/10/30 11:44:52;;;;;;;40.88;23.92;;;;;;;11.82;86.00;101049.56;6338439;28;20244;-73
2021/10/30 11:47:56;;;;;;;45.65;25.00;;;;;;;11.71;86.24;101048.38;6339359;28;20183;-73
2021/10/30 11:51:00;;;;;;;46.17;24.58;;;;;;;11.69;87.04;101071.53;6338260;28;20219;-73
2021/10/30 11:54:06;;;;;;;45.55;24.77;;;;;;;11.80;86.47;101070.84;6339085;28;20272;-73
2021/10/30 11:57:13;;;;;;;44.45;24.27;;;;;;;11.64;86.84;101069.41;6338744;28;20265;-73
2021/10/30 12:00:21;;;;;;;45.90;25.20;;;;;;;11.74;85.45;101063.50;6338117;28;20521;-73
2021/10/30 12:03:32;;;;;;;48.70;25.73;;;;;;;11.77;85.22;101068.53;6339166;28;20213;-73
2021/10/30 12:06:37;;;;;;;49.50;26.55;;;;;;;11.62;85.63;101081.63;6337900;28;20183;-73
2021/10/30 12:09:43;;;;;;;43.22;24.48;;;;;;;11.49;86.19;101088.00;6338191;28;20205;-73
2021/10/30 12:12:49;;;;;;;54.58;26.48;;;;;;;11.59;85.65;101087.53;6338195;28;20218;-73
2021/10/30 12:15:53;;;;;;;49.10;26.00;;;;;;;11.43;86.17;101109.88;6337590;28;20285;-73
2021/10/30 12:19:01;;;;;;;53.70;26.25;;;;;;;11.31;86.80;101107.81;6338755;28;20301;-74
2021/10/30 12:22:08;;;;;;;49.90;26.48;;;;;;;11.50;86.32;101107.97;6337517;28;20532;-73
2021/10/30 12:25:14;;;;;;;54.53;27.35;;;;;;;11.30;86.75;101108.84;6338473;28;20190;-73
2021/10/30 12:28:34;;;;;;;54.80;27.88;;;;;;;11.38;86.79;101117.88;6338661;28;20183;-74
2021/10/30 12:31:38;;;;;;;55.25;26.70;;;;;;;11.41;86.49;101111.97;6359239;28;20234;-73
2021/10/30 12:34:44;;;;;;;58.83;27.70;;;;;;;11.38;86.80;101112.41;6362572;28;20208;-73
2021/10/30 12:37:49;;;;;;;54.92;28.25;;;;;;;11.36;86.97;101114.50;6362361;28;20370;-73
2021/10/30 12:41:16;;;;;;;58.55;28.17;;;;;;;11.46;86.62;101109.44;6363757;28;20261;-73
2021/10/30 12:44:25;;;;;;;54.40;27.13;;;;;;;11.28;87.85;101107.41;6362404;28;20512;-73
2021/10/30 12:47:30;;;;;;;53.72;27.23;;;;;;;11.28;87.76;101119.16;6362248;28;20541;-73
2021/10/30 12:50:34;;;;;;;50.90;25.98;;;;;;;11.30;87.05;101111.59;6362647;28;20227;-73
2021/10/30 12:53:38;;;;;;;47.33;24.95;;;;;;;11.33;86.76;101089.31;6388041;27;20189;-73
2021/10/30 12:56:43;;;;;;;44.80;24.48;;;;;;;11.37;85.85;101080.69;6388853;27;20320;-73
2021/10/30 12:59:59;;;;;;;45.88;24.33;;;;;;;11.50;84.94;101094.31;6387661;27;20491;-74
2021/10/30 13:03:13;;;;;;;52.13;26.13;;;;;;;11.44;85.92;101096.00;6388735;27;20213;-73
2021/10/30 13:06:20;;;;;;;54.67;25.27;;;;;;;11.38;85.83;101096.00;6387568;27;20460;-73
2021/10/30 13:09:26;;;;;;;47.28;26.08;;;;;;;11.29;86.77;101092.69;6387952;27;20256;-73
2021/10/30 13:12:31;;;;;;;50.00;25.35;;;;;;;11.27;86.61;101112.00;6389599;27;20188;-75
2021/10/30 13:15:36;;;;;;;48.28;25.92;;;;;;;11.32;86.51;101104.00;6387701;27;20219;-75
2021/10/30 13:18:42;;;;;;;48.65;24.50;;;;;;;11.31;85.77;101118.75;6388533;27;20209;-75
2021/10/30 13:21:46;;;;;;;47.47;24.05;;;;;;;11.25;87.39;101097.75;6388128;27;20181;-74
2021/10/30 13:24:51;;;;;;;46.38;25.23;;;;;;;11.35;86.61;101105.47;6388092;27;20273;-74
2021/10/30 13:27:55;;;;;;;48.88;24.30;;;;;;;11.33;86.37;101111.16;6388448;27;20213;-74
2021/10/30 13:31:00;;;;;;;47.63;25.42;;;;;;;11.24;86.93;101111.63;6388010;27;20267;-74
2021/10/30 13:34:06;;;;;;;49.03;24.75;;;;;;;11.29;86.40;101115.41;6388128;27;20185;-74
2021/10/30 13:37:10;;;;;;;48.22;24.88;;;;;;;11.37;85.72;101097.09;6387350;28;20188;-74
2021/10/30 13:40:15;;;;;;;47.15;24.35;;;;;;;11.33;85.86;101097.50;6387665;28;20188;-74
2021/10/30 13:43:20;;;;;;;48.92;23.50;;;;;;;11.32;85.88;101095.81;6387057;28;20270;-74
2021/10/30 13:46:26;;;;;;;41.17;23.50;;;;;;;11.30;86.51;101110.75;6388220;28;20253;-74
2021/10/30 13:49:30;;;;;;;46.70;23.83;;;;;;;11.10;86.80;101101.78;6387833;28;20241;-74
2021/10/30 13:52:34;;;;;;;37.38;22.00;;;;;;;11.10;87.91;101105.34;6388048;28;20213;-72
2021/10/30 13:55:38;;;;;;;43.97;24.60;;;;;;;11.12;88.16;101111.44;6387965;28;20190;-74
2021/10/30 13:58:43;;;;;;;42.45;23.05;;;;;;;11.13;87.71;101118.59;6386663;28;20217;-74
2021/10/30 14:01:51;;;;;;;43.15;23.70;;;;;;;11.16;87.56;101126.34;6387218;28;20189;-73
2021/10/30 14:04:56;;;;;;;43.53;22.38;;;;;;;11.18;87.11;101124.25;6387035;28;20205;-72